createdAt,value
2018-12-12T00:00:47.193Z,4.30
2018-12-12T00:03:14.751Z,4.30
2018-12-12T00:05:42.241Z,4.30
2018-12-12T00:08:09.874Z,4.40
2018-12-12T00:10:37.393Z,4.40
2018-12-12T00:13:04.914Z,4.50
2018-12-12T00:15:32.546Z,4.50
2018-12-12T00:18:00.173Z,4.50
2018-12-12T00:20:27.817Z,4.40
2018-12-12T00:22:55.438Z,4.50
2018-12-12T00:25:23.087Z,4.50
2018-12-12T00:27:50.572Z,4.40
2018-12-12T00:30:18.105Z,4.50
2018-12-12T00:32:45.764Z,4.50
2018-12-12T00:35:13.337Z,4.60
2018-12-12T00:37:40.913Z,4.60
2018-12-12T00:40:08.603Z,4.60
2018-12-12T00:42:36.168Z,4.60
2018-12-12T00:45:04.345Z,4.50
2018-12-12T00:47:31.853Z,4.50
2018-12-12T00:49:59.361Z,4.40
2018-12-12T00:52:26.865Z,4.40
2018-12-12T00:54:54.504Z,4.30
2018-12-12T00:57:22.594Z,4.40
2018-12-12T00:59:50.261Z,4.50
2018-12-12T01:02:17.744Z,4.50
2018-12-12T01:07:15.461Z,4.60
2018-12-12T01:09:42.973Z,4.60
2018-12-12T01:12:11.568Z,4.50
2018-12-12T01:14:39.077Z,4.50
2018-12-12T01:17:06.583Z,4.40
2018-12-12T01:19:34.089Z,4.40
2018-12-12T01:22:01.614Z,4.30
2018-12-12T01:24:29.207Z,4.30
2018-12-12T01:26:56.702Z,4.30
2018-12-12T01:29:24.325Z,4.30
2018-12-12T01:31:51.842Z,4.40
2018-12-12T01:34:19.348Z,4.30
2018-12-12T01:36:46.922Z,4.40
2018-12-12T01:39:14.513Z,4.40
2018-12-12T01:41:42.028Z,4.40
2018-12-12T01:44:09.560Z,4.40
2018-12-12T01:46:37.073Z,4.50
2018-12-12T01:49:04.589Z,4.40
2018-12-12T01:51:32.082Z,4.40
2018-12-12T01:53:59.707Z,4.50
2018-12-12T01:56:27.371Z,4.50
2018-12-12T01:58:54.907Z,4.50
2018-12-12T02:01:22.588Z,4.50
2018-12-12T02:03:50.094Z,4.40
2018-12-12T02:06:17.713Z,4.40
2018-12-12T02:08:46.252Z,4.40
2018-12-12T02:11:13.950Z,4.30
2018-12-12T02:13:41.525Z,4.30
2018-12-12T02:16:09.669Z,4.30
2018-12-12T02:18:38.365Z,4.30
2018-12-12T02:21:06.116Z,4.30
2018-12-12T02:23:33.621Z,4.30
2018-12-12T02:26:01.248Z,4.40
2018-12-12T02:28:28.725Z,4.40
2018-12-12T02:30:56.262Z,4.30
2018-12-12T02:33:23.823Z,4.30
2018-12-12T02:35:51.308Z,4.30
2018-12-12T02:38:18.939Z,4.20
2018-12-12T02:40:46.417Z,4.20
2018-12-12T02:43:13.953Z,4.20
2018-12-12T02:45:41.504Z,4.30
2018-12-12T02:48:09.027Z,4.20
2018-12-12T02:50:36.549Z,4.20
2018-12-12T02:53:04.040Z,4.10
2018-12-12T02:55:31.677Z,4.20
2018-12-12T02:57:59.209Z,4.20
2018-12-12T03:00:26.722Z,4.10
2018-12-12T03:02:54.448Z,4.10
2018-12-12T03:05:21.950Z,4.10
2018-12-12T03:07:49.472Z,4.10
2018-12-12T03:10:17.024Z,4.10
2018-12-12T03:12:44.536Z,4.20
2018-12-12T03:15:12.211Z,4.20
2018-12-12T03:17:39.882Z,4.20
2018-12-12T03:20:07.570Z,4.10
2018-12-12T03:22:35.081Z,4.20
2018-12-12T03:25:02.662Z,4.20
2018-12-12T03:27:30.214Z,4.20
2018-12-12T03:29:57.720Z,4.10
2018-12-12T03:32:25.202Z,4.10
2018-12-12T03:34:52.709Z,4.20
2018-12-12T03:37:20.456Z,4.20
2018-12-12T03:39:47.971Z,4.20
2018-12-12T03:42:15.673Z,4.20
2018-12-12T03:44:43.179Z,4.20
2018-12-12T03:47:10.786Z,4.20
2018-12-12T03:49:38.346Z,4.30
2018-12-12T03:52:05.928Z,4.30
2018-12-12T03:54:33.437Z,4.20
2018-12-12T03:57:00.986Z,4.10
2018-12-12T03:59:28.588Z,4.10
2018-12-12T04:01:56.182Z,4.10
2018-12-12T04:04:23.803Z,4.10
2018-12-12T04:06:51.415Z,4.10
2018-12-12T04:09:19.132Z,4.10
2018-12-12T04:11:46.689Z,4.10
2018-12-12T04:14:14.193Z,4.10
2018-12-12T04:16:41.739Z,4.10
2018-12-12T04:19:09.560Z,4.10
2018-12-12T04:21:37.136Z,4.10
2018-12-12T04:24:04.629Z,4.10
2018-12-12T04:26:32.142Z,4.10
2018-12-12T04:28:59.681Z,4.10
2018-12-12T04:31:27.190Z,4.00
2018-12-12T04:33:54.710Z,4.00
2018-12-12T04:36:22.217Z,4.10
2018-12-12T04:38:49.827Z,4.10
2018-12-12T04:41:17.384Z,4.10
2018-12-12T04:43:44.947Z,4.10
2018-12-12T04:46:12.444Z,4.10
2018-12-12T04:48:40.132Z,4.10
2018-12-12T04:51:07.648Z,4.10
2018-12-12T04:53:35.384Z,4.10
2018-12-12T04:56:02.941Z,4.10
2018-12-12T04:58:30.450Z,4.10
2018-12-12T05:00:58.059Z,4.10
2018-12-12T05:03:25.558Z,4.20
2018-12-12T05:05:53.045Z,4.20
2018-12-12T05:08:20.541Z,4.20
2018-12-12T05:10:48.094Z,4.20
2018-12-12T05:13:15.571Z,4.20
2018-12-12T05:15:43.096Z,4.20
2018-12-12T05:18:10.604Z,4.20
2018-12-12T05:20:38.092Z,4.20
2018-12-12T05:23:05.644Z,4.20
2018-12-12T05:25:33.153Z,4.10
2018-12-12T05:28:00.654Z,4.00
2018-12-12T05:30:28.173Z,4.00
2018-12-12T05:32:55.692Z,4.10
2018-12-12T05:35:23.353Z,4.10
2018-12-12T05:37:52.347Z,4.10
2018-12-12T05:40:20.533Z,4.10
2018-12-12T05:42:48.212Z,4.00
2018-12-12T05:45:15.863Z,4.10
2018-12-12T05:47:43.363Z,4.10
2018-12-12T05:50:10.871Z,4.20
2018-12-12T05:52:38.557Z,4.20
2018-12-12T05:55:06.057Z,4.20
2018-12-12T05:57:33.680Z,4.10
2018-12-12T06:00:01.237Z,4.20
2018-12-12T06:02:28.813Z,4.20
2018-12-12T06:04:56.324Z,4.20
2018-12-12T06:07:23.987Z,4.20
2018-12-12T06:09:51.561Z,4.20
2018-12-12T06:12:19.052Z,4.20
2018-12-12T06:14:46.721Z,4.20
2018-12-12T06:17:14.336Z,4.10
2018-12-12T06:19:42.325Z,4.20
2018-12-12T06:22:09.953Z,4.20
2018-12-12T06:24:37.552Z,4.20
2018-12-12T06:27:05.097Z,4.20
2018-12-12T06:29:32.597Z,4.20
2018-12-12T06:32:00.103Z,4.20
2018-12-12T06:34:27.597Z,4.20
2018-12-12T06:36:55.240Z,4.20
2018-12-12T06:39:22.817Z,4.20
2018-12-12T06:41:50.424Z,4.20
2018-12-12T06:44:17.994Z,4.20
2018-12-12T06:46:45.580Z,4.20
2018-12-12T06:49:13.071Z,4.20
2018-12-12T06:51:40.590Z,4.20
2018-12-12T06:54:08.208Z,4.20
2018-12-12T06:56:35.742Z,4.30
2018-12-12T06:59:03.231Z,4.30
2018-12-12T07:01:30.766Z,4.30
2018-12-12T07:03:58.450Z,4.30
2018-12-12T07:06:26.015Z,4.30
2018-12-12T07:08:53.569Z,4.30
2018-12-12T07:11:21.041Z,4.20
2018-12-12T07:13:48.584Z,4.20
2018-12-12T07:16:16.059Z,4.10
2018-12-12T07:18:43.681Z,4.10
2018-12-12T07:21:11.180Z,4.00
2018-12-12T07:23:38.687Z,4.00
2018-12-12T07:26:06.177Z,4.00
2018-12-12T07:28:33.679Z,3.90
2018-12-12T07:31:01.195Z,3.90
2018-12-12T07:33:28.697Z,4.00
2018-12-12T07:35:59.470Z,4.00
2018-12-12T07:38:25.809Z,4.10
2018-12-12T07:40:53.393Z,4.10
2018-12-12T07:43:20.890Z,4.00
2018-12-12T07:45:48.384Z,4.00
2018-12-12T07:48:16.133Z,4.00
2018-12-12T07:50:44.136Z,4.00
2018-12-12T07:53:11.911Z,4.00
2018-12-12T07:55:39.445Z,4.10
2018-12-12T07:58:07.097Z,4.20
2018-12-12T08:00:34.673Z,4.20
2018-12-12T08:03:06.366Z,4.20
2018-12-12T08:05:31.744Z,4.30
2018-12-12T08:07:59.260Z,4.30
2018-12-12T08:10:26.780Z,4.30
2018-12-12T08:12:54.496Z,4.30
2018-12-12T08:15:22.066Z,4.30
2018-12-12T08:17:49.558Z,4.20
2018-12-12T08:20:17.172Z,4.20
2018-12-12T08:22:44.720Z,4.10
2018-12-12T08:25:12.300Z,4.10
2018-12-12T08:27:39.908Z,4.10
2018-12-12T08:30:08.022Z,4.10
2018-12-12T08:32:35.583Z,4.10
2018-12-12T08:35:03.182Z,4.20
2018-12-12T08:37:30.677Z,4.30
2018-12-12T08:39:58.201Z,4.30
2018-12-12T08:42:25.727Z,4.30
2018-12-12T08:44:53.228Z,4.20
2018-12-12T08:47:20.785Z,4.20
2018-12-12T08:49:48.313Z,4.20
2018-12-12T08:52:15.864Z,4.20
2018-12-12T08:54:43.402Z,4.30
2018-12-12T08:57:11.074Z,4.40
2018-12-12T08:59:38.553Z,4.40
2018-12-12T09:02:06.066Z,4.40
2018-12-12T09:04:33.573Z,4.30
2018-12-12T09:07:01.241Z,4.30
2018-12-12T09:09:28.961Z,4.40
2018-12-12T09:11:56.483Z,4.30
2018-12-12T09:14:24.183Z,4.30
2018-12-12T09:16:51.676Z,4.40
2018-12-12T09:19:19.198Z,4.50
2018-12-12T09:21:46.705Z,4.40
2018-12-12T09:24:14.237Z,4.50
2018-12-12T09:26:41.745Z,4.60
2018-12-12T09:29:09.270Z,4.70
2018-12-12T09:31:36.761Z,4.70
2018-12-12T09:34:04.557Z,4.80
2018-12-12T09:36:32.117Z,4.90
2018-12-12T09:38:59.667Z,4.90
2018-12-12T09:41:27.225Z,5.00
2018-12-12T09:43:54.696Z,5.00
2018-12-12T09:46:22.277Z,5.10
2018-12-12T09:48:49.768Z,5.10
2018-12-12T09:51:17.289Z,5.00
2018-12-12T09:53:44.816Z,4.90
2018-12-12T09:56:12.337Z,4.90
2018-12-12T09:58:39.834Z,5.00
2018-12-12T10:01:07.328Z,5.10
2018-12-12T10:03:34.880Z,5.10
2018-12-12T10:08:28.450Z,5.10
2018-12-12T10:10:55.945Z,5.10
2018-12-12T10:13:23.646Z,5.00
2018-12-12T10:15:51.203Z,5.00
2018-12-12T10:18:18.763Z,5.00
2018-12-12T10:20:46.269Z,5.00
2018-12-12T10:23:13.774Z,5.00
2018-12-12T10:25:41.289Z,5.00
2018-12-12T10:28:08.805Z,5.00
2018-12-12T10:30:36.441Z,5.00
2018-12-12T10:33:03.954Z,5.10
2018-12-12T10:35:31.476Z,5.20
2018-12-12T10:37:58.993Z,5.30
2018-12-12T10:40:26.489Z,5.30
2018-12-12T10:42:54.143Z,5.30
2018-12-12T10:45:21.704Z,5.40
2018-12-12T10:47:49.262Z,5.50
2018-12-12T10:50:16.884Z,5.50
2018-12-12T10:52:44.433Z,5.60
2018-12-12T10:55:12.143Z,5.70
2018-12-12T10:57:39.710Z,5.70
2018-12-12T11:00:12.710Z,5.70
2018-12-12T11:02:40.314Z,5.70
2018-12-12T11:05:08.138Z,5.60
2018-12-12T11:07:35.645Z,5.50
2018-12-12T11:10:04.772Z,5.60
2018-12-12T11:12:32.271Z,5.70
2018-12-12T11:15:00.189Z,5.70
2018-12-12T11:17:27.768Z,5.70
2018-12-12T11:19:55.454Z,5.80
2018-12-12T11:22:23.171Z,5.90
2018-12-12T11:24:50.697Z,6.00
2018-12-12T11:27:18.433Z,6.00
2018-12-12T11:29:46.156Z,6.00
2018-12-12T11:32:13.657Z,6.00
2018-12-12T11:34:41.274Z,5.80
2018-12-12T11:37:08.949Z,5.70
2018-12-12T11:39:36.605Z,5.70
2018-12-12T11:42:04.154Z,5.70
2018-12-12T11:44:31.670Z,5.70
2018-12-12T11:46:59.274Z,5.70
2018-12-12T11:49:26.841Z,5.60
2018-12-12T11:51:54.696Z,5.60
2018-12-12T11:54:22.341Z,5.60
2018-12-12T11:56:49.843Z,5.70
2018-12-12T11:59:17.381Z,5.70
2018-12-12T12:01:44.896Z,5.60
2018-12-12T12:04:12.591Z,5.50
2018-12-12T12:06:40.092Z,5.50
2018-12-12T12:09:07.819Z,5.50
2018-12-12T12:11:35.400Z,5.50
2018-12-12T12:14:02.931Z,5.50
2018-12-12T12:16:30.460Z,5.50
2018-12-12T12:18:58.151Z,5.60
2018-12-12T12:21:25.707Z,5.60
2018-12-12T12:23:53.266Z,5.80
2018-12-12T12:26:20.945Z,5.80
2018-12-12T12:28:48.469Z,5.90
2018-12-12T12:31:16.881Z,5.80
2018-12-12T12:33:44.505Z,5.80
2018-12-12T12:36:12.005Z,5.80
2018-12-12T12:38:39.647Z,5.60
2018-12-12T12:41:07.201Z,5.50
2018-12-12T12:43:34.868Z,5.50
2018-12-12T12:46:02.389Z,5.50
2018-12-12T12:48:29.902Z,5.50
2018-12-12T12:50:57.405Z,5.50
2018-12-12T12:53:25.405Z,5.50
2018-12-12T12:55:53.005Z,5.50
2018-12-12T12:58:20.729Z,5.40
2018-12-12T13:00:48.287Z,5.40
2018-12-12T13:03:15.847Z,5.40
2018-12-12T13:05:43.333Z,5.30
2018-12-12T13:08:10.962Z,5.30
2018-12-12T13:10:38.828Z,5.30
2018-12-12T13:13:06.750Z,5.40
2018-12-12T13:15:34.904Z,5.50
2018-12-12T13:18:02.544Z,5.50
2018-12-12T13:20:30.085Z,5.50
2018-12-12T13:22:57.709Z,5.50
2018-12-12T13:25:25.308Z,5.50
2018-12-12T13:27:52.866Z,5.60
2018-12-12T13:30:20.488Z,5.60
2018-12-12T13:32:48.010Z,5.60
2018-12-12T13:35:15.533Z,5.60
2018-12-12T13:37:43.069Z,5.60
2018-12-12T13:40:10.763Z,5.60
2018-12-12T13:42:38.404Z,5.50
2018-12-12T13:45:05.998Z,5.50
2018-12-12T13:47:33.593Z,5.50
2018-12-12T13:50:01.103Z,5.40
2018-12-12T13:52:28.759Z,5.40
2018-12-12T13:54:56.319Z,5.30
2018-12-12T13:57:23.842Z,5.30
2018-12-12T13:59:51.457Z,5.30
2018-12-12T14:02:19.049Z,5.30
2018-12-12T14:04:46.556Z,5.20
2018-12-12T14:07:14.053Z,5.20
2018-12-12T14:09:41.776Z,5.20
2018-12-12T14:12:09.436Z,5.20
2018-12-12T14:14:36.945Z,5.30
2018-12-12T14:17:04.603Z,5.20
2018-12-12T14:19:32.417Z,5.20
2018-12-12T14:21:59.903Z,5.20
2018-12-12T14:24:27.535Z,5.20
2018-12-12T14:26:55.045Z,5.30
2018-12-12T14:29:22.653Z,5.30
2018-12-12T14:31:50.173Z,5.30
2018-12-12T14:34:17.704Z,5.40
2018-12-12T14:36:45.328Z,5.40
2018-12-12T14:39:12.886Z,5.40
2018-12-12T14:41:40.401Z,5.40
2018-12-12T14:44:07.910Z,5.30
2018-12-12T14:46:35.472Z,5.30
2018-12-12T14:49:03.017Z,5.30
2018-12-12T14:51:30.537Z,5.30
2018-12-12T14:53:58.105Z,5.40
2018-12-12T14:56:25.601Z,5.40
2018-12-12T14:58:53.364Z,5.40
2018-12-12T15:01:21.127Z,5.40
2018-12-12T15:03:48.730Z,5.30
2018-12-12T15:06:16.441Z,5.20
2018-12-12T15:08:43.952Z,5.10
2018-12-12T15:11:11.640Z,5.10
2018-12-12T15:13:39.127Z,5.10
2018-12-12T15:16:06.706Z,5.10
2018-12-12T15:18:34.205Z,5.10
2018-12-12T15:21:01.708Z,5.10
2018-12-12T15:23:29.262Z,5.10
2018-12-12T15:25:56.771Z,5.00
2018-12-12T15:28:24.471Z,5.00
2018-12-12T15:30:51.950Z,5.00
2018-12-12T15:33:19.588Z,5.00
2018-12-12T15:35:47.066Z,5.00
2018-12-12T15:38:14.718Z,4.90
2018-12-12T15:40:42.222Z,5.00
2018-12-12T15:43:09.865Z,5.00
2018-12-12T15:45:37.590Z,5.00
2018-12-12T15:48:05.078Z,5.10
2018-12-12T15:50:32.614Z,5.10
2018-12-12T15:53:00.201Z,5.10
2018-12-12T15:55:27.935Z,5.10
2018-12-12T15:57:55.432Z,5.10
2018-12-12T16:00:24.986Z,5.10
2018-12-12T16:02:52.657Z,5.10
2018-12-12T16:05:20.189Z,5.10
2018-12-12T16:07:47.764Z,5.00
2018-12-12T16:10:15.277Z,5.10
2018-12-12T16:12:42.771Z,5.10
2018-12-12T16:15:10.388Z,5.10
2018-12-12T16:17:37.897Z,5.10
2018-12-12T16:20:06.480Z,5.10
2018-12-12T16:22:34.000Z,5.10
2018-12-12T16:25:01.906Z,5.10
2018-12-12T16:27:29.513Z,5.10
2018-12-12T16:29:57.022Z,4.90
2018-12-12T16:32:24.580Z,4.80
2018-12-12T16:34:55.612Z,5.00
2018-12-12T16:37:21.673Z,4.90
2018-12-12T16:39:49.185Z,4.90
2018-12-12T16:42:16.808Z,4.80
2018-12-12T16:44:44.318Z,4.80
2018-12-12T16:47:11.886Z,4.80
2018-12-12T16:49:39.436Z,4.80
2018-12-12T16:52:07.098Z,4.80
2018-12-12T16:54:34.598Z,4.70
2018-12-12T16:57:02.111Z,4.80
2018-12-12T16:59:29.625Z,4.80
2018-12-12T17:01:57.129Z,4.80
2018-12-12T17:04:24.872Z,4.80
2018-12-12T17:06:52.385Z,4.70
2018-12-12T17:09:20.019Z,4.70
2018-12-12T17:11:47.494Z,4.70
2018-12-12T17:14:15.133Z,4.80
2018-12-12T17:16:42.743Z,4.90
2018-12-12T17:19:10.225Z,4.90
2018-12-12T17:21:37.728Z,4.90
2018-12-12T17:24:05.268Z,4.90
2018-12-12T17:26:32.873Z,4.90
2018-12-12T17:29:00.414Z,4.90
2018-12-12T17:31:27.935Z,4.90
2018-12-12T17:33:55.422Z,4.90
2018-12-12T17:36:23.053Z,5.00
2018-12-12T17:38:50.541Z,4.90
2018-12-12T17:41:18.170Z,4.80
2018-12-12T17:43:45.645Z,4.80
2018-12-12T17:46:13.344Z,4.80
2018-12-12T17:48:40.854Z,4.70
2018-12-12T17:51:08.507Z,4.60
2018-12-12T17:53:36.074Z,4.60
2018-12-12T17:56:03.673Z,4.50
2018-12-12T17:58:31.209Z,4.30
2018-12-12T18:00:58.754Z,4.20
2018-12-12T18:03:26.257Z,4.20
2018-12-12T18:05:53.772Z,4.10
2018-12-12T18:08:21.370Z,4.10
2018-12-12T18:10:48.873Z,4.00
2018-12-12T18:13:16.398Z,4.10
2018-12-12T18:15:43.901Z,4.00
2018-12-12T18:18:11.590Z,4.00
2018-12-12T18:20:39.172Z,3.90
2018-12-12T18:23:06.674Z,3.90
2018-12-12T18:25:34.206Z,3.90
2018-12-12T18:28:01.728Z,3.90
2018-12-12T18:30:29.552Z,3.80
2018-12-12T18:32:57.050Z,3.90
2018-12-12T18:35:24.749Z,3.90
2018-12-12T18:37:52.273Z,3.90
2018-12-12T18:40:19.800Z,3.90
2018-12-12T18:42:47.316Z,4.00
2018-12-12T18:45:14.817Z,4.00
2018-12-12T18:47:42.571Z,4.00
2018-12-12T18:50:10.058Z,4.00
2018-12-12T18:52:37.757Z,4.00
2018-12-12T18:55:05.468Z,4.00
2018-12-12T18:57:32.981Z,3.90
2018-12-12T19:00:00.489Z,4.00
2018-12-12T19:02:28.122Z,4.00
2018-12-12T19:04:55.679Z,4.10
2018-12-12T19:07:23.166Z,4.10
2018-12-12T19:09:50.804Z,4.20
2018-12-12T19:12:18.277Z,4.20
2018-12-12T19:15:02.304Z,4.20
2018-12-12T19:17:29.815Z,4.20
2018-12-12T19:19:57.311Z,4.30
2018-12-12T19:22:24.959Z,4.20
2018-12-12T19:24:52.553Z,4.30
2018-12-12T19:27:20.097Z,4.30
2018-12-12T19:29:47.649Z,4.30
2018-12-12T19:32:15.207Z,4.30
2018-12-12T19:34:42.689Z,4.30
2018-12-12T19:37:10.229Z,4.30
2018-12-12T19:39:37.736Z,4.30
2018-12-12T19:42:05.469Z,4.20
2018-12-12T19:44:33.045Z,4.10
2018-12-12T19:47:00.670Z,4.00
2018-12-12T19:49:28.272Z,4.00
2018-12-12T19:51:55.868Z,4.10
2018-12-12T19:54:23.406Z,4.20
2018-12-12T19:56:51.006Z,4.10
2018-12-12T19:59:18.513Z,4.20
2018-12-12T20:01:46.116Z,4.10
2018-12-12T20:04:13.772Z,4.20
2018-12-12T20:06:41.356Z,4.10
2018-12-12T20:09:08.874Z,4.10
2018-12-12T20:11:36.556Z,4.10
2018-12-12T20:14:04.115Z,4.10
2018-12-12T20:16:31.674Z,4.20
2018-12-12T20:18:59.158Z,4.30
2018-12-12T20:21:26.792Z,4.30
2018-12-12T20:23:54.290Z,4.20
2018-12-12T20:26:21.818Z,4.20
2018-12-12T20:28:49.380Z,4.20
2018-12-12T20:31:16.915Z,4.20
2018-12-12T20:33:44.438Z,4.20
2018-12-12T20:36:12.144Z,4.30
2018-12-12T20:38:39.710Z,4.30
2018-12-12T20:41:07.261Z,4.30
2018-12-12T20:43:34.860Z,4.30
2018-12-12T20:46:02.396Z,4.20
2018-12-12T20:48:29.947Z,4.10
2018-12-12T20:50:57.542Z,4.00
2018-12-12T20:53:25.157Z,4.00
2018-12-12T20:55:52.658Z,3.90
2018-12-12T20:58:20.210Z,3.90
2018-12-12T21:00:47.882Z,4.00
2018-12-12T21:03:15.444Z,4.10
2018-12-12T21:05:43.052Z,4.10
2018-12-12T21:08:10.574Z,4.00
2018-12-12T21:10:38.222Z,3.90
2018-12-12T21:13:05.924Z,3.90
2018-12-12T21:15:33.460Z,3.80
2018-12-12T21:18:00.972Z,3.90
2018-12-12T21:20:28.571Z,4.00
2018-12-12T21:22:56.657Z,4.00
2018-12-12T21:25:25.570Z,4.00
2018-12-12T21:27:53.045Z,4.10
2018-12-12T21:30:20.791Z,4.10
2018-12-12T21:32:48.293Z,4.10
2018-12-12T21:35:15.845Z,4.20
2018-12-12T21:37:43.348Z,4.20
2018-12-12T21:40:10.852Z,4.30
2018-12-12T21:42:38.385Z,4.20
2018-12-12T21:45:06.141Z,4.10
2018-12-12T21:47:33.804Z,4.20
2018-12-12T21:50:01.344Z,4.20
2018-12-12T21:52:28.854Z,4.20
2018-12-12T21:54:56.345Z,4.20
2018-12-12T21:57:23.869Z,4.20
2018-12-12T21:59:51.389Z,4.30
2018-12-12T22:02:18.904Z,4.30
2018-12-12T22:04:46.612Z,4.40
2018-12-12T22:07:14.152Z,4.30
2018-12-12T22:09:41.729Z,4.40
2018-12-12T22:12:09.230Z,4.30
2018-12-12T22:14:36.809Z,4.40
2018-12-12T22:17:04.437Z,4.30
2018-12-12T22:19:32.014Z,4.40
2018-12-12T22:21:59.527Z,4.40
2018-12-12T22:24:27.285Z,4.40
2018-12-12T22:26:54.863Z,4.40
2018-12-12T22:29:22.457Z,4.40
2018-12-12T22:31:49.975Z,4.40
2018-12-12T22:34:17.464Z,4.40
2018-12-12T22:36:44.999Z,4.40
2018-12-12T22:39:12.501Z,4.40
2018-12-12T22:41:40.037Z,4.40
2018-12-12T22:44:07.756Z,4.50
2018-12-12T22:46:35.272Z,4.40
2018-12-12T22:49:02.773Z,4.30
2018-12-12T22:51:30.405Z,4.30
2018-12-12T22:53:58.012Z,4.30
2018-12-12T22:56:25.517Z,4.30
2018-12-12T22:58:53.020Z,4.40
2018-12-12T23:01:23.288Z,4.40
2018-12-12T23:03:50.957Z,4.30
2018-12-12T23:06:20.540Z,4.10
2018-12-12T23:08:48.076Z,4.10
2018-12-12T23:11:15.610Z,4.00
2018-12-12T23:13:43.100Z,4.00
2018-12-12T23:16:10.736Z,4.00
2018-12-12T23:18:38.312Z,4.00
2018-12-12T23:21:05.833Z,4.10
2018-12-12T23:23:33.445Z,4.10
2018-12-12T23:26:01.042Z,4.10
2018-12-12T23:28:28.535Z,4.20
2018-12-12T23:30:56.067Z,4.20
2018-12-12T23:33:24.090Z,4.30
2018-12-12T23:35:51.785Z,4.30
2018-12-12T23:38:19.498Z,4.30
2018-12-12T23:40:47.182Z,4.30
2018-12-12T23:43:14.796Z,4.30
2018-12-12T23:45:42.342Z,4.30
2018-12-12T23:48:09.893Z,4.30
2018-12-12T23:50:37.474Z,4.20
2018-12-12T23:53:05.045Z,4.20
2018-12-12T23:55:32.613Z,4.20
2018-12-12T23:58:00.298Z,4.20
